Katowice International Airport

EPKT · śląskie, Polska

Historia METAR EPKT · Międzynarodowy Port Lotniczy Katowice

Poniżej widzisz METAR-y z ostatnich kilku dni. Wybierz rok, aby przeglądać starsze METAR-y, począwszy od roku 2007.

8 grudnia 2022

Czas Kod Pogoda Temp. Widoczność Sufit Wiatr METAR/SPECI
08:00
V
1 °C 10 km+ - 200° 200° 5 kt METAR EPKT 080700Z 20005KT 190V250 9999 FEW049 01/M01 Q1011
07:30
V
1 °C 10 km+ - 210° 210° 5 kt METAR EPKT 080630Z 21005KT 9999 SCT043 01/M01 Q1010
07:00
V
1 °C 10 km+ - 210° 210° 8 kt METAR EPKT 080600Z 21008KT 200V260 9999 FEW033 01/M01 Q1010
06:30
V
1 °C 10 km+ - 210° 210° 8 kt METAR EPKT 080530Z 21008KT 9999 -SN FEW007 01/M01 Q1010
06:00
V
1 °C 10 km+ - 210° 210° 7 kt METAR EPKT 080500Z 21007KT CAVOK 01/M01 Q1010
05:30
V
1 °C 10 km+ - 220° 220° 7 kt METAR EPKT 080430Z 22007KT 9999 -SN FEW022 01/M01 Q1010
05:00
V
1 °C 10 km+ 4.800 ft 220° 220° 8 kt METAR EPKT 080400Z 22008KT 9999 -SN FEW025 SCT032 BKN048 01/M01 Q1010
04:30
V
1 °C 10 km+ 4.100 ft 210° 210° 6 kt METAR EPKT 080330Z 21006KT 9999 SCT029 OVC041 01/M01 Q1010
04:00
V
1 °C 10 km+ 4.200 ft 210° 210° 7 kt METAR EPKT 080300Z 21007KT 9999 SCT032 OVC042 01/M00 Q1010
03:30
V
1 °C 10 km+ 3.100 ft 220° 220° 8 kt METAR EPKT 080230Z 22008KT 9999 -SN FEW014 SCT028 BKN031 01/M01 Q1010
03:00
M
1 °C 10 km+ 2.100 ft 220° 220° 9 kt METAR EPKT 080200Z 22009KT 9999 -SN BKN021 OVC027 01/M00 Q1010
02:30
M
1 °C 10 km+ 2.600 ft 220° 220° 8 kt METAR EPKT 080130Z 22008KT 9999 FEW023 BKN026 OVC039 01/M01 Q1011
02:00
M
1 °C 10 km+ 2.300 ft 220° 220° 9 kt METAR EPKT 080100Z 22009KT 9999 OVC023 01/M01 Q1010
01:30
M
1 °C 10 km+ 2.500 ft 220° 220° 8 kt METAR EPKT 080030Z 22008KT 9999 OVC025 01/M01 Q1010
01:00
V
0 °C 10 km+ 3.000 ft 220° 220° 7 kt METAR EPKT 080000Z 22007KT 9999 SCT026 BKN030 00/M01 Q1010
00:30
M
1 °C 9 km 2.600 ft 220° 220° 8 kt METAR EPKT 072330Z 22008KT 9000 FEW022 BKN026 01/M00 Q1010
00:00
M
1 °C 9 km 2.800 ft 220° 220° 9 kt METAR EPKT 072300Z 22009KT 9000 SCT024 BKN028 01/M00 Q1010

7 grudnia 2022

Czas Kod Pogoda Temp. Widoczność Sufit Wiatr METAR/SPECI
23:30
V
1 °C 10 km+ 3.400 ft 220° 220° 9 kt METAR EPKT 072230Z 22009KT 9999 -SN SCT020 BKN034 01/M00 Q1010
23:00
I
1 °C 9 km 600 ft 220° 220° 9 kt METAR EPKT 072200Z 22009KT 9000 -SN SCT004 BKN006 01/00 Q1010
22:30
L
1 °C 10 km+ 400 ft 230° 230° 11 kt METAR EPKT 072130Z 23011KT 9999 -SN OVC004 01/00 Q1010
22:00
I
1 °C 10 km+ 800 ft 230° 230° 11 kt METAR EPKT 072100Z 23011KT 9999 -SN SCT007 OVC008 01/M00 Q1010
21:30
M
1 °C 10 km+ 1.900 ft 230° 230° 9 kt METAR EPKT 072030Z 23009KT 9999 SCT012 BKN019 01/M00 Q1010
21:00
M
1 °C 10 km+ 2.400 ft 240° 240° 6 kt METAR EPKT 072000Z 24006KT 9999 -SN FEW018 OVC024 01/00 Q1010
20:30
M
0 °C 9 km 2.900 ft 240° 240° 6 kt METAR EPKT 071930Z 24006KT 9000 -SHSN FEW015CB BKN029 00/M00 Q1010 RESHSN
20:00
M
0 °C 6 km 1.000 ft 230° 230° 8 kt METAR EPKT 071900Z 23008KT 6000 -SHSN SCT003 BKN010CB 00/M00 Q1010 RESHSN
19:30
M
1 °C 7 km 2.400 ft 240° 240° 9 kt METAR EPKT 071830Z 24009KT 7000 -SHSN FEW013 SCT019CB BKN024 01/M00 Q1010
19:00
V
1 °C 10 km+ 3.500 ft 220° 220° 9 kt METAR EPKT 071800Z 22009KT 190V260 9999 -SHSN FEW030CB BKN035 01/M01 Q1010
18:30
V
2 °C 10 km+ 3.400 ft 220° 220° 10 kt METAR EPKT 071730Z 22010KT 9999 -SN OVC034 02/M00 Q1009
18:00
V
2 °C 10 km+ 3.400 ft 220° 220° 11 kt METAR EPKT 071700Z 22011KT 9999 OVC034 02/M01 Q1009
17:30
V
2 °C 10 km+ 4.000 ft 220° 220° 11 kt METAR EPKT 071630Z 22011KT 9999 OVC040 02/M00 Q1009
17:00
V
2 °C 10 km+ 3.700 ft 220° 220° 10 kt METAR EPKT 071600Z 22010KT 9999 OVC037 02/M00 Q1009
16:30
V
2 °C 10 km+ 4.200 ft 230° 230° 10 kt METAR EPKT 071530Z 23010KT 9999 OVC042 02/00 Q1009
16:00
V
2 °C 10 km+ 3.700 ft 230° 230° 9 kt METAR EPKT 071500Z 23009KT 9999 SCT026 BKN037 02/01 Q1009
15:30
M
2 °C 10 km+ 2.400 ft 240° 240° 10 kt METAR EPKT 071430Z 24010KT 9999 -SHRA SCT016CB BKN024 02/00 Q1009
15:00
M
2 °C 10 km+ 2.000 ft 230° 230° 9 kt METAR EPKT 071400Z 23009KT 9999 -SHRA FEW017CB BKN020 02/01 Q1009
14:30
V
2 °C 10 km+ 4.000 ft 220° 220° 9 kt METAR EPKT 071330Z 22009KT 9999 SCT031 OVC040 02/01 Q1009
14:00
V
2 °C 10 km+ 3.900 ft 230° 230° 10 kt METAR EPKT 071300Z 23010KT 9999 FEW013 BKN039 02/01 Q1009
13:30
V
2 °C 10 km+ 3.500 ft 240° 240° 11 kt METAR EPKT 071230Z 24011KT 9999 FEW009 BKN035 02/01 Q1009
13:00
V
2 °C 9 km - 230° 230° 9 kt METAR EPKT 071200Z 23009KT 9000 NSC 02/01 Q1009
12:30
M
1 °C 6 km 3.600 ft 230° 230° 8 kt METAR EPKT 071130Z 23008KT 6000 FEW004 BKN036 01/01 Q1009
12:00
I
1 °C 7 km 600 ft 220° 220° 7 kt METAR EPKT 071100Z 22007KT 190V260 7000 SCT004 BKN006 01/01 Q1009
11:30
I
1 °C 7 km 900 ft 220° 220° 8 kt METAR EPKT 071030Z 22008KT 7000 SCT004 BKN009 01/00 Q1010
11:00
L
1 °C 8 km 300 ft 240° 240° 9 kt METAR EPKT 071000Z 24009KT 8000 -SN OVC003 01/00 Q1010
10:30
L
1 °C 10 km+ 400 ft 250° 250° 10 kt METAR EPKT 070930Z 25010KT 9999 -SN OVC004 01/00 Q1010
10:00
I
1 °C 10 km+ 700 ft 270° 270° 10 kt METAR EPKT 070900Z 27010KT 9999 -SN SCT005 OVC007 01/00 Q1010
09:30
L
0 °C 5 km 300 ft 250° 250° 10 kt METAR EPKT 070830Z 25010KT 5000 -SN BR OVC003 00/00 Q1010
09:00
L
0 °C 4,2 km 300 ft 250° 250° 10 kt METAR EPKT 070800Z 25010KT 4200 -SN BR OVC003 00/00 Q1010
08:30
L
0 °C 2,5 km 300 ft 240° 240° 10 kt METAR EPKT 070730Z 24010KT 2500 -SN BR FEW002 OVC003 00/M00 Q1010 RESN
08:00
L
0 °C 2 km 300 ft 250° 250° 12 kt METAR EPKT 070700Z 25012KT 2000 SN BR OVC003 00/M00 Q1010
07:30
L
0 °C 4,5 km 300 ft 250° 250° 10 kt METAR EPKT 070630Z 25010KT 4500 -SN BR OVC003 00/M00 Q1010
07:00
L
0 °C 6 km 300 ft 250° 250° 11 kt METAR EPKT 070600Z 25011KT 6000 -SN BKN003 OVC005 00/00 Q1009
06:30
L
0 °C 5 km 400 ft 250° 250° 10 kt METAR EPKT 070530Z 25010KT 5000 -SN BR SCT003 OVC004 00/00 Q1009
06:00
L
0 °C 5 km 300 ft 250° 250° 10 kt METAR EPKT 070500Z 25010KT 5000 -SN BR OVC003 00/00 Q1009
05:30
L
1 °C 5 km 300 ft 250° 250° 10 kt METAR EPKT 070430Z 25010KT 5000 -SN BR OVC003 01/00 Q1009
05:00
L
1 °C 6 km 400 ft 240° 240° 10 kt METAR EPKT 070400Z 24010KT 6000 -SNRA SCT003 OVC004 01/00 Q1010
04:30
L
0 °C 8 km 300 ft 250° 250° 8 kt METAR EPKT 070330Z 25008KT 8000 -RASN OVC003 00/00 Q1010
04:00
L
0 °C 6 km 200 ft 240° 240° 8 kt METAR EPKT 070300Z 24008KT 6000 -RASN OVC002 00/00 Q1010
03:30
L
0 °C 5 km 200 ft 240° 240° 7 kt METAR EPKT 070230Z 24007KT 5000 -RASN BR OVC002 00/00 Q1010
03:00
L
0 °C 6 km 300 ft 240° 240° 7 kt METAR EPKT 070200Z 24007KT 6000 -SN OVC003 00/00 Q1010
02:30
L
0 °C 3,5 km 200 ft 230° 230° 8 kt METAR EPKT 070130Z 23008KT 3500 -SN BR OVC002 00/00 Q1010
02:00
I
0 °C 3,2 km 600 ft 230° 230° 7 kt METAR EPKT 070100Z 23007KT 3200 -SN BR SCT003 OVC006 00/00 Q1010
01:30
L
0 °C 3,3 km 300 ft 240° 240° 8 kt METAR EPKT 070030Z 24008KT 3300 -SN BR OVC003 00/00 Q1010
01:00
L
0 °C 4,3 km 300 ft 240° 240° 8 kt METAR EPKT 070000Z 24008KT 4300 -SN BR OVC003 00/00 Q1011
00:30
L
0 °C 4,4 km 300 ft 240° 240° 9 kt METAR EPKT 062330Z 24009KT 4400 -SN BR OVC003 00/00 Q1011
00:00
L
0 °C 3,4 km 300 ft 240° 240° 9 kt METAR EPKT 062300Z 24009KT 3400 -SN BR OVC003 00/00 Q1011

6 grudnia 2022

Czas Kod Pogoda Temp. Widoczność Sufit Wiatr METAR/SPECI
23:30
L
0 °C 2,1 km 200 ft 230° 230° 8 kt METAR EPKT 062230Z 23008KT 2100 -SN BR OVC002 00/00 Q1011
23:00
L
0 °C 4,2 km 300 ft 240° 240° 8 kt METAR EPKT 062200Z 24008KT 4200 -SN BR OVC003 00/00 Q1011
22:30
L
0 °C 5 km 300 ft 240° 240° 8 kt METAR EPKT 062130Z 24008KT 5000 -SN BR OVC003 00/00 Q1011
22:00
L
0 °C 4,7 km 300 ft 240° 240° 7 kt METAR EPKT 062100Z 24007KT 4700 -SN BR OVC003 00/00 Q1011
21:30
L
0 °C 4,6 km 300 ft 250° 250° 8 kt METAR EPKT 062030Z 25008KT 4600 -SN BR OVC003 00/00 Q1011
21:00
L
0 °C 4,3 km 300 ft 250° 250° 9 kt METAR EPKT 062000Z 25009KT 4300 -SN BR OVC003 00/00 Q1011 RESN
20:30
L
0 °C 2,5 km 300 ft 250° 250° 7 kt METAR EPKT 061930Z 25007KT 2500 SN BR OVC003 00/M00 Q1011
20:00
L
0 °C 1,5 km 200 ft 250° 250° 7 kt METAR EPKT 061900Z 25007KT 1500 SN BR OVC002 00/M00 Q1011
19:30
L
0 °C 1,5 km 200 ft 250° 250° 8 kt METAR EPKT 061830Z 25008KT 1500 SN BR OVC002 00/M00 Q1011
19:00
L
0 °C 1 km 200 ft 240° 240° 7 kt METAR EPKT 061800Z 24007KT 1000 R26/1800U SN BR OVC002 00/M00 Q1011 RESN
18:30
L
0 °C 1,2 km 200 ft 250° 250° 7 kt METAR EPKT 061730Z 25007KT 1200 R26/P2000N +SN BR OVC002 00/M00 Q1011
18:00
L
0 °C 900 m 200 ft 240° 240° 7 kt METAR EPKT 061700Z 24007KT 0900 R26/1900N +SN OVC002 00/00 Q1011
17:30
L
1 °C 3,2 km 300 ft 240° 240° 8 kt METAR EPKT 061630Z 24008KT 3200 -SNRA BR OVC003 01/00 Q1011
17:00
L
2 °C 6 km 300 ft 250° 250° 12 kt METAR EPKT 061600Z 25012KT 6000 -RA OVC003 02/01 Q1011
16:30
L
2 °C 10 km+ 400 ft 230° 230° 11 kt METAR EPKT 061530Z 23011KT 9999 -RA OVC004 02/01 Q1011
16:00
I
3 °C 10 km+ 700 ft 230° 230° 10 kt METAR EPKT 061500Z 23010KT 9999 -RA SCT005 OVC007 03/02 Q1011
15:30
I
3 °C 10 km+ 600 ft 230° 230° 9 kt METAR EPKT 061430Z 23009KT 9999 -RA FEW005 BKN006 03/02 Q1011
15:00
I
3 °C 10 km+ 600 ft 220° 220° 9 kt METAR EPKT 061400Z 22009KT 9999 -RA BKN006 OVC011 03/03 Q1011
14:30
I
4 °C 10 km+ 500 ft 210° 210° 7 kt METAR EPKT 061330Z 21007KT 9999 -RA BKN005 OVC009 04/03 Q1011
14:00
M
4 °C 6 km 2.000 ft 210° 210° 6 kt METAR EPKT 061300Z 21006KT 6000 -RA FEW006 SCT010 BKN020 04/03 Q1011
13:30
M
4 °C 6 km 2.700 ft 220° 220° 8 kt METAR EPKT 061230Z 22008KT 6000 -RA FEW008 SCT014 OVC027 04/03 Q1011
13:00
M
4 °C 5 km 2.000 ft 210° 210° 7 kt METAR EPKT 061200Z 21007KT 5000 -RA BR SCT009 BKN020 04/03 Q1012
12:30
M
4 °C 5 km 1.200 ft 220° 220° 9 kt METAR EPKT 061130Z 22009KT 5000 -RA BR SCT004 BKN012 04/04 Q1012
12:00
L
4 °C 3,4 km 200 ft 230° 230° 5 kt METAR EPKT 061100Z 23005KT 3400 -RA BR BKN002 OVC005 04/04 Q1012
11:30
L
4 °C 5 km 200 ft Var Var 1 kt METAR EPKT 061030Z VRB01KT 5000 -RA BR OVC002 04/04 Q1012
11:00
L
4 °C 5 km 200 ft Var Var 1 kt METAR EPKT 061000Z VRB01KT 5000 -RA BR OVC002 04/04 Q1012
10:30
L
4 °C 4 km 200 ft Var Var 1 kt METAR EPKT 060930Z VRB01KT 4000 -RA BR OVC002 04/04 Q1013
10:00
L
4 °C 4 km 200 ft 020° 020° 2 kt METAR EPKT 060900Z 02002KT 4000 -RA BR OVC002 04/03 Q1013
09:30
L
3 °C 3,5 km 200 ft 360° 360° 3 kt METAR EPKT 060830Z 36003KT 3500 -RA BR OVC002 03/03 Q1013
09:00
L
3 °C 2,7 km 200 ft 360° 360° 3 kt METAR EPKT 060800Z 36003KT 2700 -RA BR BKN002 OVC021 03/03 Q1013
08:30
L
3 °C 1,5 km 100 ft 040° 040° 3 kt METAR EPKT 060730Z 04003KT 1500 -RA BR BKN001 OVC006 03/03 Q1013
08:00
L
3 °C 1,1 km 500 ft 030° 030° 2 kt METAR EPKT 060700Z 03002KT 1100 R26/P2000N -RA BR FEW002 SCT003 BKN005 03/03 Q1014
07:30
L
4 °C 1,2 km 900 ft Var Var 2 kt METAR EPKT 060630Z VRB02KT 1200 R26/P2000N -RA BR FEW002 SCT006 BKN009 04/03 Q1014 RERA
07:00
L
4 °C 1,2 km 400 ft 210° 210° 2 kt METAR EPKT 060600Z 21002KT 1200 R26/P2000N RA BR SCT003 BKN004 04/03 Q1014
06:30
L
4 °C 1,9 km 200 ft 140° 140° 3 kt METAR EPKT 060530Z 14003KT 060V170 1900 -RA BR OVC002 04/03 Q1014
06:00
L
4 °C 1,4 km 300 ft Var Var 2 kt METAR EPKT 060500Z VRB02KT 1400 R26/P2000N -RA BR BKN003 OVC016 04/03 Q1014
05:30
L
4 °C 2,1 km 200 ft 040° 040° 2 kt METAR EPKT 060430Z 04002KT 2100 -RA BR OVC002 04/03 Q1014
05:00
L
3 °C 1,8 km 200 ft 030° 030° 5 kt METAR EPKT 060400Z 03005KT 1800 BR BKN002 OVC016 03/03 Q1014
04:30
I
4 °C 1,7 km 1.600 ft 070° 070° 3 kt METAR EPKT 060330Z 07003KT 1700 BR SCT002 OVC016 04/03 Q1015
04:00
I
4 °C 1,5 km 1.600 ft 050° 050° 4 kt METAR EPKT 060300Z 05004KT 1500 BR SCT002 OVC016 04/03 Q1015
03:30
I
4 °C 1,6 km 2.500 ft 060° 060° 4 kt METAR EPKT 060230Z 06004KT 1600 -RA BR SCT016 OVC025 04/03 Q1015
03:00
I
4 °C 1,6 km 1.900 ft 060° 060° 3 kt METAR EPKT 060200Z 06003KT 1600 -RA BR FEW005 BKN019 04/04 Q1016 RERA
02:30
I
4 °C 1,7 km 600 ft 120° 120° 4 kt METAR EPKT 060130Z 12004KT 1700 -RA BR OVC006 04/04 Q1016
02:00
I
4 °C 1,6 km 700 ft 120° 120° 3 kt METAR EPKT 060100Z 12003KT 1600 -RA BR FEW004 BKN007 04/04 Q1017
01:30
L
4 °C 1,3 km 800 ft 110° 110° 3 kt METAR EPKT 060030Z 11003KT 1300 R26/P2000N -RA BR SCT005 OVC008 04/04 Q1017
01:00
L
3 °C 1,2 km 1.100 ft 100° 100° 3 kt METAR EPKT 060000Z 10003KT 1200 0900NE R26/P2000N -RA PRFG BR SCT002 BKN011 03/03 Q1017
00:30
L
4 °C 1,1 km 1.500 ft 100° 100° 3 kt METAR EPKT 052330Z 10003KT 1100 0750N R26/1900U -DZ PRFG BR SCT001 OVC015 04/04 Q1017
00:00
L
3 °C 800 m 300 ft Var Var 1 kt METAR EPKT 052300Z VRB01KT 0800 R26/P2000N FG SCT001 BKN003 03/03 Q1018

5 grudnia 2022

Czas Kod Pogoda Temp. Widoczność Sufit Wiatr METAR/SPECI
23:30
L
3 °C 1 km 600 ft 350° 350° 1 kt METAR EPKT 052230Z 35001KT 1000 0500N R26/P2000N -DZ PRFG BR SCT001 BKN006 03/03 Q1018
23:00
L
4 °C 1,1 km 700 ft 320° 320° 1 kt METAR EPKT 052200Z 32001KT 1100 0600N R26/P2000N -RADZ BCFG BR FEW002 BKN007 04/03 Q1018 REDZ
22:30
I
4 °C 1,6 km 900 ft 330° 330° 1 kt METAR EPKT 052130Z 33001KT 1600 DZ BR SCT004 OVC009 04/03 Q1018
22:00
L
4 °C 4,4 km 400 ft Var 000° 0 kt METAR EPKT 052100Z 00000KT 4400 BR BKN004 04/03 Q1018
21:30
I
4 °C 6 km 500 ft 280° 280° 1 kt METAR EPKT 052030Z 28001KT 6000 OVC005 04/03 Q1018
21:00
I
5 °C 6 km 700 ft 270° 270° 2 kt METAR EPKT 052000Z 27002KT 6000 OVC007 05/03 Q1018
20:30
I
4 °C 7 km 800 ft Var Var 1 kt METAR EPKT 051930Z VRB01KT 7000 BKN008 04/03 Q1018
20:00
M
4 °C 8 km 1.100 ft 110° 110° 2 kt METAR EPKT 051900Z 11002KT 8000 OVC011 04/03 Q1019
19:30
M
4 °C 9 km 1.100 ft 080° 080° 1 kt METAR EPKT 051830Z 08001KT 9000 OVC011 04/03 Q1019
19:00
M
4 °C 8 km 1.200 ft Var Var 1 kt METAR EPKT 051800Z VRB01KT 8000 OVC012 04/03 Q1019
18:30
M
4 °C 8 km 1.200 ft Var Var 1 kt METAR EPKT 051730Z VRB01KT 8000 OVC012 04/03 Q1018
18:00
M
4 °C 10 km+ 1.300 ft Var Var 1 kt METAR EPKT 051700Z VRB01KT 9999 BKN013 04/03 Q1018
17:30
M
4 °C 10 km+ 1.300 ft Var Var 1 kt METAR EPKT 051630Z VRB01KT 9999 BKN013 BKN032 04/03 Q1019
17:00
M
5 °C 8 km 1.300 ft Var Var 1 kt METAR EPKT 051600Z VRB01KT 8000 BKN013 05/03 Q1019
16:30
M
5 °C 8 km 2.100 ft 150° 150° 3 kt METAR EPKT 051530Z 15003KT 8000 SCT015 BKN021 05/03 Q1019
16:00
V
5 °C 10 km+ 3.300 ft 120° 120° 3 kt METAR EPKT 051500Z 12003KT 9999 FEW021 BKN033 05/03 Q1019
15:30
V
5 °C 10 km+ 3.200 ft 100° 100° 4 kt METAR EPKT 051430Z 10004KT 9999 BKN032 05/03 Q1019
15:00
V
5 °C 10 km+ 3.100 ft 080° 080° 3 kt METAR EPKT 051400Z 08003KT 9999 BKN031 05/03 Q1019
14:30
M
5 °C 10 km+ 2.700 ft 100° 100° 4 kt METAR EPKT 051330Z 10004KT 9999 BKN027 05/03 Q1018
14:00
M
5 °C 10 km+ 2.800 ft 090° 090° 3 kt METAR EPKT 051300Z 09003KT 9999 BKN028 05/02 Q1019
13:30
V
5 °C 10 km+ 3.200 ft Var Var 1 kt METAR EPKT 051230Z VRB01KT 9999 BKN032 05/02 Q1019
13:00
V
5 °C 10 km+ 3.500 ft Var Var 1 kt METAR EPKT 051200Z VRB01KT 9999 BKN035 05/02 Q1019
12:30
V
5 °C 10 km+ 3.500 ft 110° 110° 5 kt METAR EPKT 051130Z 11005KT 9999 SCT031 BKN035 05/02 Q1019
12:00
V
5 °C 10 km+ 3.000 ft 100° 100° 4 kt METAR EPKT 051100Z 10004KT 9999 BKN030 05/02 Q1019
11:30
V
4 °C 10 km+ - 100° 100° 5 kt METAR EPKT 051030Z 10005KT 9999 SCT030 04/02 Q1019
11:00
V
4 °C 10 km+ - 110° 110° 6 kt METAR EPKT 051000Z 11006KT 9999 SCT031 04/01 Q1019

My i strony trzecie śledzimy Twoje zachowanie internetowe na naszej stronie za pomocą plików cookie. Jeśli kontynuujesz, zakładamy, że zgadzasz się z naszymi polityka plików cookie.